sensor_id;sensor_type;location;lat;lon;timestamp;P1;durP1;ratioP1;P2;durP2;ratioP2
33836;SDS011;20140;49.356;8.812;2023-02-28T00:02:14;3.03;;;1.73;;
33836;SDS011;20140;49.356;8.812;2023-02-28T00:04:42;3.28;;;2.80;;
33836;SDS011;20140;49.356;8.812;2023-02-28T00:07:08;3.72;;;1.75;;
33836;SDS011;20140;49.356;8.812;2023-02-28T00:09:33;2.83;;;2.53;;
33836;SDS011;20140;49.356;8.812;2023-02-28T00:11:59;2.73;;;2.10;;
33836;SDS011;20140;49.356;8.812;2023-02-28T00:14:24;2.93;;;2.30;;
33836;SDS011;20140;49.356;8.812;2023-02-28T00:16:50;3.37;;;2.10;;
33836;SDS011;20140;49.356;8.812;2023-02-28T00:19:17;2.83;;;2.10;;
33836;SDS011;20140;49.356;8.812;2023-02-28T00:21:43;2.47;;;2.03;;
33836;SDS011;20140;49.356;8.812;2023-02-28T00:24:08;5.07;;;2.30;;
33836;SDS011;20140;49.356;8.812;2023-02-28T00:26:34;3.80;;;2.10;;
33836;SDS011;20140;49.356;8.812;2023-02-28T00:28:59;4.63;;;2.47;;
33836;SDS011;20140;49.356;8.812;2023-02-28T00:31:25;3.60;;;2.33;;
33836;SDS011;20140;49.356;8.812;2023-02-28T00:33:50;3.20;;;2.17;;
33836;SDS011;20140;49.356;8.812;2023-02-28T00:36:16;3.10;;;2.53;;
33836;SDS011;20140;49.356;8.812;2023-02-28T00:38:42;5.45;;;2.60;;
33836;SDS011;20140;49.356;8.812;2023-02-28T00:41:07;3.08;;;2.67;;
33836;SDS011;20140;49.356;8.812;2023-02-28T00:43:33;4.50;;;2.85;;
33836;SDS011;20140;49.356;8.812;2023-02-28T00:46:01;5.45;;;3.10;;
33836;SDS011;20140;49.356;8.812;2023-02-28T00:48:27;3.17;;;2.30;;
33836;SDS011;20140;49.356;8.812;2023-02-28T00:50:53;4.63;;;2.67;;
33836;SDS011;20140;49.356;8.812;2023-02-28T00:53:19;2.88;;;2.22;;
33836;SDS011;20140;49.356;8.812;2023-02-28T00:55:45;3.38;;;2.45;;
33836;SDS011;20140;49.356;8.812;2023-02-28T00:58:10;3.27;;;2.43;;
33836;SDS011;20140;49.356;8.812;2023-02-28T01:00:36;4.17;;;2.63;;
33836;SDS011;20140;49.356;8.812;2023-02-28T01:03:01;4.37;;;2.37;;
33836;SDS011;20140;49.356;8.812;2023-02-28T01:05:27;3.80;;;2.60;;
33836;SDS011;20140;49.356;8.812;2023-02-28T01:07:52;3.50;;;2.50;;
33836;SDS011;20140;49.356;8.812;2023-02-28T01:10:18;4.13;;;2.63;;
33836;SDS011;20140;49.356;8.812;2023-02-28T01:12:43;4.40;;;3.00;;
33836;SDS011;20140;49.356;8.812;2023-02-28T01:15:10;4.77;;;2.60;;
33836;SDS011;20140;49.356;8.812;2023-02-28T01:17:36;3.25;;;2.95;;
33836;SDS011;20140;49.356;8.812;2023-02-28T01:20:02;4.95;;;2.85;;
33836;SDS011;20140;49.356;8.812;2023-02-28T01:22:28;4.38;;;2.83;;
33836;SDS011;20140;49.356;8.812;2023-02-28T01:24:53;2.85;;;2.47;;
33836;SDS011;20140;49.356;8.812;2023-02-28T01:27:19;6.25;;;2.80;;
33836;SDS011;20140;49.356;8.812;2023-02-28T01:29:44;3.42;;;2.78;;
33836;SDS011;20140;49.356;8.812;2023-02-28T01:32:10;4.20;;;2.50;;
33836;SDS011;20140;49.356;8.812;2023-02-28T01:34:36;2.50;;;2.30;;
33836;SDS011;20140;49.356;8.812;2023-02-28T01:37:01;3.77;;;3.07;;
33836;SDS011;20140;49.356;8.812;2023-02-28T01:39:28;3.97;;;2.53;;
33836;SDS011;20140;49.356;8.812;2023-02-28T01:41:54;3.65;;;2.35;;
33836;SDS011;20140;49.356;8.812;2023-02-28T01:47:26;3.78;;;2.65;;
33836;SDS011;20140;49.356;8.812;2023-02-28T01:49:55;5.40;;;3.50;;
33836;SDS011;20140;49.356;8.812;2023-02-28T01:52:21;4.95;;;3.00;;
33836;SDS011;20140;49.356;8.812;2023-02-28T01:54:51;4.30;;;3.72;;
33836;SDS011;20140;49.356;8.812;2023-02-28T01:57:21;7.00;;;3.90;;
33836;SDS011;20140;49.356;8.812;2023-02-28T01:59:52;4.68;;;3.72;;
33836;SDS011;20140;49.356;8.812;2023-02-28T02:02:23;3.55;;;2.88;;
33836;SDS011;20140;49.356;8.812;2023-02-28T02:04:50;4.72;;;3.63;;
33836;SDS011;20140;49.356;8.812;2023-02-28T02:07:21;4.82;;;3.17;;
33836;SDS011;20140;49.356;8.812;2023-02-28T02:09:48;4.35;;;3.30;;
33836;SDS011;20140;49.356;8.812;2023-02-28T02:12:19;4.30;;;3.35;;
33836;SDS011;20140;49.356;8.812;2023-02-28T02:17:33;5.50;;;3.50;;
33836;SDS011;20140;49.356;8.812;2023-02-28T02:25:49;4.45;;;3.00;;
33836;SDS011;20140;49.356;8.812;2023-02-28T02:40:22;5.93;;;3.42;;
33836;SDS011;20140;49.356;8.812;2023-02-28T02:42:59;4.30;;;3.00;;
33836;SDS011;20140;49.356;8.812;2023-02-28T02:46:04;4.63;;;3.30;;
33836;SDS011;20140;49.356;8.812;2023-02-28T02:48:25;4.85;;;3.10;;
33836;SDS011;20140;49.356;8.812;2023-02-28T02:50:55;4.20;;;2.75;;
33836;SDS011;20140;49.356;8.812;2023-02-28T02:53:27;5.15;;;3.22;;
33836;SDS011;20140;49.356;8.812;2023-02-28T02:55:58;4.38;;;3.08;;
33836;SDS011;20140;49.356;8.812;2023-02-28T02:58:27;6.00;;;3.50;;
33836;SDS011;20140;49.356;8.812;2023-02-28T03:00:57;4.78;;;3.20;;
33836;SDS011;20140;49.356;8.812;2023-02-28T03:03:26;4.78;;;2.80;;
33836;SDS011;20140;49.356;8.812;2023-02-28T03:05:56;5.90;;;4.13;;
33836;SDS011;20140;49.356;8.812;2023-02-28T03:08:24;5.17;;;3.20;;
33836;SDS011;20140;49.356;8.812;2023-02-28T03:10:51;6.35;;;4.00;;
33836;SDS011;20140;49.356;8.812;2023-02-28T03:19:17;5.32;;;3.60;;
33836;SDS011;20140;49.356;8.812;2023-02-28T03:22:14;4.75;;;4.20;;
33836;SDS011;20140;49.356;8.812;2023-02-28T03:25:05;5.97;;;4.18;;
33836;SDS011;20140;49.356;8.812;2023-02-28T03:30:33;4.55;;;3.35;;
33836;SDS011;20140;49.356;8.812;2023-02-28T03:33:16;5.27;;;3.57;;
33836;SDS011;20140;49.356;8.812;2023-02-28T03:35:55;4.38;;;3.45;;
33836;SDS011;20140;49.356;8.812;2023-02-28T03:38:29;5.10;;;3.78;;
33836;SDS011;20140;49.356;8.812;2023-02-28T03:41:03;5.72;;;4.03;;
33836;SDS011;20140;49.356;8.812;2023-02-28T03:43:44;5.72;;;3.78;;
33836;SDS011;20140;49.356;8.812;2023-02-28T03:46:16;6.68;;;3.92;;
33836;SDS011;20140;49.356;8.812;2023-02-28T03:48:51;6.35;;;4.25;;
33836;SDS011;20140;49.356;8.812;2023-02-28T03:51:25;6.50;;;3.78;;
33836;SDS011;20140;49.356;8.812;2023-02-28T03:53:54;4.80;;;4.38;;
33836;SDS011;20140;49.356;8.812;2023-02-28T03:56:27;6.82;;;4.30;;
33836;SDS011;20140;49.356;8.812;2023-02-28T03:59:16;5.63;;;4.03;;
33836;SDS011;20140;49.356;8.812;2023-02-28T04:01:47;5.30;;;4.07;;
33836;SDS011;20140;49.356;8.812;2023-02-28T04:04:14;7.22;;;4.43;;
33836;SDS011;20140;49.356;8.812;2023-02-28T04:06:41;6.43;;;4.45;;
33836;SDS011;20140;49.356;8.812;2023-02-28T04:09:09;5.43;;;4.30;;
33836;SDS011;20140;49.356;8.812;2023-02-28T04:11:42;6.68;;;4.60;;
33836;SDS011;20140;49.356;8.812;2023-02-28T04:14:12;7.32;;;4.78;;
33836;SDS011;20140;49.356;8.812;2023-02-28T04:16:38;5.67;;;4.53;;
33836;SDS011;20140;49.356;8.812;2023-02-28T04:19:06;6.70;;;4.70;;
33836;SDS011;20140;49.356;8.812;2023-02-28T04:21:34;5.60;;;4.78;;
33836;SDS011;20140;49.356;8.812;2023-02-28T04:24:03;4.80;;;4.30;;
33836;SDS011;20140;49.356;8.812;2023-02-28T04:26:34;6.20;;;4.38;;
33836;SDS011;20140;49.356;8.812;2023-02-28T04:29:01;5.85;;;5.05;;
33836;SDS011;20140;49.356;8.812;2023-02-28T04:31:28;5.70;;;4.63;;
33836;SDS011;20140;49.356;8.812;2023-02-28T04:33:54;5.17;;;4.53;;
33836;SDS011;20140;49.356;8.812;2023-02-28T04:36:19;6.23;;;4.57;;
33836;SDS011;20140;49.356;8.812;2023-02-28T04:38:45;6.37;;;5.67;;
33836;SDS011;20140;49.356;8.812;2023-02-28T04:41:11;6.65;;;4.28;;
33836;SDS011;20140;49.356;8.812;2023-02-28T04:43:38;6.95;;;4.47;;
33836;SDS011;20140;49.356;8.812;2023-02-28T04:46:04;6.57;;;4.93;;
33836;SDS011;20140;49.356;8.812;2023-02-28T04:48:31;15.75;;;5.60;;
33836;SDS011;20140;49.356;8.812;2023-02-28T04:51:05;6.43;;;4.85;;
33836;SDS011;20140;49.356;8.812;2023-02-28T04:53:32;5.97;;;5.07;;
33836;SDS011;20140;49.356;8.812;2023-02-28T04:55:58;5.30;;;4.50;;
33836;SDS011;20140;49.356;8.812;2023-02-28T04:58:24;6.20;;;4.35;;
33836;SDS011;20140;49.356;8.812;2023-02-28T05:00:50;5.78;;;4.35;;
33836;SDS011;20140;49.356;8.812;2023-02-28T05:03:16;5.50;;;3.85;;
33836;SDS011;20140;49.356;8.812;2023-02-28T05:05:42;7.10;;;4.55;;
33836;SDS011;20140;49.356;8.812;2023-02-28T05:08:07;6.07;;;4.13;;
33836;SDS011;20140;49.356;8.812;2023-02-28T05:10:34;6.05;;;4.82;;
33836;SDS011;20140;49.356;8.812;2023-02-28T05:13:00;7.40;;;4.88;;
33836;SDS011;20140;49.356;8.812;2023-02-28T05:15:26;8.48;;;4.65;;
33836;SDS011;20140;49.356;8.812;2023-02-28T05:17:51;8.02;;;5.00;;
33836;SDS011;20140;49.356;8.812;2023-02-28T05:20:17;5.53;;;4.50;;
33836;SDS011;20140;49.356;8.812;2023-02-28T05:22:43;6.88;;;4.93;;
33836;SDS011;20140;49.356;8.812;2023-02-28T05:25:18;5.85;;;4.88;;
33836;SDS011;20140;49.356;8.812;2023-02-28T05:27:44;7.75;;;4.28;;
33836;SDS011;20140;49.356;8.812;2023-02-28T05:30:10;6.60;;;4.87;;
33836;SDS011;20140;49.356;8.812;2023-02-28T05:32:37;5.18;;;4.68;;
33836;SDS011;20140;49.356;8.812;2023-02-28T05:35:03;5.75;;;4.80;;
33836;SDS011;20140;49.356;8.812;2023-02-28T05:37:29;5.57;;;4.35;;
33836;SDS011;20140;49.356;8.812;2023-02-28T05:39:55;5.07;;;3.90;;
33836;SDS011;20140;49.356;8.812;2023-02-28T05:42:20;7.13;;;4.57;;
33836;SDS011;20140;49.356;8.812;2023-02-28T05:44:46;5.60;;;4.47;;
33836;SDS011;20140;49.356;8.812;2023-02-28T05:47:12;5.70;;;3.93;;
33836;SDS011;20140;49.356;8.812;2023-02-28T05:49:40;8.13;;;4.90;;
33836;SDS011;20140;49.356;8.812;2023-02-28T05:52:06;5.63;;;4.10;;
33836;SDS011;20140;49.356;8.812;2023-02-28T05:54:32;5.28;;;4.20;;
33836;SDS011;20140;49.356;8.812;2023-02-28T05:56:57;7.78;;;4.95;;
33836;SDS011;20140;49.356;8.812;2023-02-28T05:59:23;7.40;;;4.88;;
33836;SDS011;20140;49.356;8.812;2023-02-28T06:01:48;5.53;;;4.47;;
33836;SDS011;20140;49.356;8.812;2023-02-28T06:04:15;7.90;;;4.63;;
33836;SDS011;20140;49.356;8.812;2023-02-28T06:06:44;7.28;;;5.53;;
33836;SDS011;20140;49.356;8.812;2023-02-28T06:09:10;5.47;;;4.68;;
33836;SDS011;20140;49.356;8.812;2023-02-28T06:11:36;6.47;;;4.15;;
33836;SDS011;20140;49.356;8.812;2023-02-28T06:14:02;7.82;;;5.18;;
33836;SDS011;20140;49.356;8.812;2023-02-28T06:16:28;6.28;;;4.63;;
33836;SDS011;20140;49.356;8.812;2023-02-28T06:18:56;6.70;;;4.95;;
33836;SDS011;20140;49.356;8.812;2023-02-28T06:21:23;6.30;;;5.03;;
33836;SDS011;20140;49.356;8.812;2023-02-28T06:23:49;8.02;;;5.15;;
33836;SDS011;20140;49.356;8.812;2023-02-28T06:26:15;7.47;;;6.18;;
33836;SDS011;20140;49.356;8.812;2023-02-28T06:28:41;6.63;;;4.90;;
33836;SDS011;20140;49.356;8.812;2023-02-28T06:31:09;9.13;;;6.50;;
33836;SDS011;20140;49.356;8.812;2023-02-28T06:33:37;6.60;;;5.47;;
33836;SDS011;20140;49.356;8.812;2023-02-28T06:36:03;5.75;;;4.85;;
33836;SDS011;20140;49.356;8.812;2023-02-28T06:38:30;6.68;;;4.90;;
33836;SDS011;20140;49.356;8.812;2023-02-28T06:40:56;9.05;;;5.63;;
33836;SDS011;20140;49.356;8.812;2023-02-28T06:43:24;6.55;;;5.45;;
33836;SDS011;20140;49.356;8.812;2023-02-28T06:45:54;5.57;;;4.70;;
33836;SDS011;20140;49.356;8.812;2023-02-28T06:48:20;6.38;;;5.45;;
33836;SDS011;20140;49.356;8.812;2023-02-28T06:50:46;5.40;;;4.83;;
33836;SDS011;20140;49.356;8.812;2023-02-28T06:53:11;6.83;;;5.60;;
33836;SDS011;20140;49.356;8.812;2023-02-28T06:55:37;8.93;;;5.83;;
33836;SDS011;20140;49.356;8.812;2023-02-28T06:58:04;6.22;;;4.95;;
33836;SDS011;20140;49.356;8.812;2023-02-28T07:00:39;6.18;;;5.40;;
33836;SDS011;20140;49.356;8.812;2023-02-28T07:03:06;6.95;;;6.00;;
33836;SDS011;20140;49.356;8.812;2023-02-28T07:05:31;6.72;;;5.10;;
33836;SDS011;20140;49.356;8.812;2023-02-28T07:07:59;7.43;;;5.55;;
33836;SDS011;20140;49.356;8.812;2023-02-28T07:10:24;8.73;;;6.28;;
33836;SDS011;20140;49.356;8.812;2023-02-28T07:12:50;6.97;;;5.05;;
33836;SDS011;20140;49.356;8.812;2023-02-28T07:15:16;8.20;;;5.57;;
33836;SDS011;20140;49.356;8.812;2023-02-28T07:17:41;7.53;;;5.90;;
33836;SDS011;20140;49.356;8.812;2023-02-28T07:20:07;8.30;;;5.55;;
33836;SDS011;20140;49.356;8.812;2023-02-28T07:22:33;8.32;;;5.32;;
33836;SDS011;20140;49.356;8.812;2023-02-28T07:24:59;8.63;;;6.47;;
33836;SDS011;20140;49.356;8.812;2023-02-28T07:27:24;9.67;;;5.80;;
33836;SDS011;20140;49.356;8.812;2023-02-28T07:29:50;8.60;;;5.97;;
33836;SDS011;20140;49.356;8.812;2023-02-28T07:32:16;7.90;;;5.95;;
33836;SDS011;20140;49.356;8.812;2023-02-28T07:34:43;6.63;;;5.55;;
33836;SDS011;20140;49.356;8.812;2023-02-28T07:37:09;8.15;;;5.65;;
33836;SDS011;20140;49.356;8.812;2023-02-28T07:39:34;6.82;;;5.13;;
33836;SDS011;20140;49.356;8.812;2023-02-28T07:42:00;8.80;;;5.30;;
33836;SDS011;20140;49.356;8.812;2023-02-28T07:44:29;8.85;;;6.00;;
33836;SDS011;20140;49.356;8.812;2023-02-28T07:46:55;8.18;;;6.32;;
33836;SDS011;20140;49.356;8.812;2023-02-28T07:49:20;6.53;;;5.60;;
33836;SDS011;20140;49.356;8.812;2023-02-28T07:51:46;9.98;;;6.47;;
33836;SDS011;20140;49.356;8.812;2023-02-28T07:54:11;7.90;;;6.15;;
33836;SDS011;20140;49.356;8.812;2023-02-28T07:56:37;10.15;;;6.90;;
33836;SDS011;20140;49.356;8.812;2023-02-28T07:59:02;10.45;;;6.38;;
33836;SDS011;20140;49.356;8.812;2023-02-28T08:01:28;8.35;;;5.78;;
33836;SDS011;20140;49.356;8.812;2023-02-28T08:03:54;9.35;;;6.65;;
33836;SDS011;20140;49.356;8.812;2023-02-28T08:06:22;8.98;;;5.63;;
33836;SDS011;20140;49.356;8.812;2023-02-28T08:08:49;9.07;;;6.35;;
33836;SDS011;20140;49.356;8.812;2023-02-28T08:11:16;8.00;;;6.97;;
33836;SDS011;20140;49.356;8.812;2023-02-28T08:13:42;7.13;;;5.72;;
33836;SDS011;20140;49.356;8.812;2023-02-28T08:16:08;7.88;;;5.03;;
33836;SDS011;20140;49.356;8.812;2023-02-28T08:18:34;6.47;;;4.95;;
33836;SDS011;20140;49.356;8.812;2023-02-28T08:21:05;7.63;;;6.00;;
33836;SDS011;20140;49.356;8.812;2023-02-28T08:23:32;8.95;;;6.05;;
33836;SDS011;20140;49.356;8.812;2023-02-28T08:25:58;9.30;;;6.20;;
33836;SDS011;20140;49.356;8.812;2023-02-28T08:28:24;8.68;;;5.78;;
33836;SDS011;20140;49.356;8.812;2023-02-28T08:30:49;7.63;;;5.90;;
33836;SDS011;20140;49.356;8.812;2023-02-28T08:33:15;7.53;;;5.80;;
33836;SDS011;20140;49.356;8.812;2023-02-28T08:35:40;8.77;;;6.63;;
33836;SDS011;20140;49.356;8.812;2023-02-28T08:38:06;9.37;;;6.40;;
33836;SDS011;20140;49.356;8.812;2023-02-28T08:40:31;7.20;;;5.27;;
33836;SDS011;20140;49.356;8.812;2023-02-28T08:42:57;10.17;;;6.43;;
33836;SDS011;20140;49.356;8.812;2023-02-28T08:45:23;6.97;;;5.28;;
33836;SDS011;20140;49.356;8.812;2023-02-28T08:47:49;6.75;;;5.18;;
33836;SDS011;20140;49.356;8.812;2023-02-28T08:50:17;7.80;;;5.87;;
33836;SDS011;20140;49.356;8.812;2023-02-28T08:52:43;6.50;;;5.60;;
33836;SDS011;20140;49.356;8.812;2023-02-28T08:55:09;9.40;;;6.30;;
33836;SDS011;20140;49.356;8.812;2023-02-28T08:57:35;7.78;;;5.22;;
33836;SDS011;20140;49.356;8.812;2023-02-28T09:00:01;7.28;;;6.38;;
33836;SDS011;20140;49.356;8.812;2023-02-28T09:02:29;8.88;;;6.03;;
33836;SDS011;20140;49.356;8.812;2023-02-28T09:04:56;9.10;;;6.07;;
33836;SDS011;20140;49.356;8.812;2023-02-28T09:07:21;10.23;;;7.40;;
33836;SDS011;20140;49.356;8.812;2023-02-28T09:09:47;7.93;;;5.70;;
33836;SDS011;20140;49.356;8.812;2023-02-28T09:12:19;9.23;;;6.30;;
33836;SDS011;20140;49.356;8.812;2023-02-28T09:14:46;9.20;;;5.32;;
33836;SDS011;20140;49.356;8.812;2023-02-28T09:17:11;8.20;;;6.50;;
33836;SDS011;20140;49.356;8.812;2023-02-28T09:19:37;8.90;;;6.47;;
33836;SDS011;20140;49.356;8.812;2023-02-28T09:22:02;8.35;;;5.32;;
33836;SDS011;20140;49.356;8.812;2023-02-28T09:24:28;8.52;;;6.63;;
33836;SDS011;20140;49.356;8.812;2023-02-28T09:26:53;8.20;;;6.13;;
33836;SDS011;20140;49.356;8.812;2023-02-28T09:29:19;8.45;;;6.65;;
33836;SDS011;20140;49.356;8.812;2023-02-28T09:31:44;7.35;;;5.55;;
33836;SDS011;20140;49.356;8.812;2023-02-28T09:34:10;10.13;;;6.57;;
33836;SDS011;20140;49.356;8.812;2023-02-28T09:36:35;8.23;;;6.30;;
33836;SDS011;20140;49.356;8.812;2023-02-28T09:39:04;17.08;;;6.30;;
33836;SDS011;20140;49.356;8.812;2023-02-28T09:41:32;8.77;;;6.82;;
33836;SDS011;20140;49.356;8.812;2023-02-28T09:44:13;8.32;;;5.88;;
33836;SDS011;20140;49.356;8.812;2023-02-28T09:46:59;7.95;;;6.88;;
33836;SDS011;20140;49.356;8.812;2023-02-28T09:49:42;6.60;;;5.72;;
33836;SDS011;20140;49.356;8.812;2023-02-28T09:52:21;8.20;;;5.50;;
33836;SDS011;20140;49.356;8.812;2023-02-28T09:55:18;9.27;;;5.78;;
33836;SDS011;20140;49.356;8.812;2023-02-28T09:57:44;11.77;;;8.30;;
33836;SDS011;20140;49.356;8.812;2023-02-28T10:00:15;14.03;;;9.13;;
33836;SDS011;20140;49.356;8.812;2023-02-28T10:05:24;9.05;;;7.20;;
33836;SDS011;20140;49.356;8.812;2023-02-28T10:07:59;9.20;;;8.27;;
33836;SDS011;20140;49.356;8.812;2023-02-28T10:10:37;13.88;;;11.68;;
33836;SDS011;20140;49.356;8.812;2023-02-28T10:15:46;14.75;;;12.30;;
33836;SDS011;20140;49.356;8.812;2023-02-28T10:18:16;9.83;;;7.57;;
33836;SDS011;20140;49.356;8.812;2023-02-28T10:20:49;9.20;;;5.97;;
33836;SDS011;20140;49.356;8.812;2023-02-28T10:23:20;7.90;;;6.78;;
33836;SDS011;20140;49.356;8.812;2023-02-28T10:25:53;16.88;;;12.35;;
33836;SDS011;20140;49.356;8.812;2023-02-28T10:28:22;7.97;;;7.18;;
33836;SDS011;20140;49.356;8.812;2023-02-28T10:30:51;8.68;;;6.47;;
33836;SDS011;20140;49.356;8.812;2023-02-28T10:33:31;10.10;;;6.70;;
33836;SDS011;20140;49.356;8.812;2023-02-28T10:36:01;9.18;;;6.20;;
33836;SDS011;20140;49.356;8.812;2023-02-28T10:38:35;9.70;;;6.53;;
33836;SDS011;20140;49.356;8.812;2023-02-28T10:41:03;7.97;;;6.43;;
33836;SDS011;20140;49.356;8.812;2023-02-28T10:43:31;8.45;;;6.40;;
33836;SDS011;20140;49.356;8.812;2023-02-28T10:45:58;7.63;;;6.37;;
33836;SDS011;20140;49.356;8.812;2023-02-28T10:48:28;8.38;;;6.47;;
33836;SDS011;20140;49.356;8.812;2023-02-28T10:50:56;8.00;;;7.15;;
33836;SDS011;20140;49.356;8.812;2023-02-28T10:55:58;8.70;;;6.55;;
33836;SDS011;20140;49.356;8.812;2023-02-28T10:58:30;7.72;;;6.22;;
33836;SDS011;20140;49.356;8.812;2023-02-28T11:01:18;8.88;;;7.10;;
33836;SDS011;20140;49.356;8.812;2023-02-28T11:03:48;8.82;;;7.22;;
33836;SDS011;20140;49.356;8.812;2023-02-28T11:08:52;10.90;;;7.05;;
33836;SDS011;20140;49.356;8.812;2023-02-28T11:11:20;10.18;;;6.93;;
33836;SDS011;20140;49.356;8.812;2023-02-28T11:13:47;10.55;;;7.60;;
33836;SDS011;20140;49.356;8.812;2023-02-28T11:16:16;9.25;;;7.22;;
33836;SDS011;20140;49.356;8.812;2023-02-28T11:19:03;10.65;;;6.85;;
33836;SDS011;20140;49.356;8.812;2023-02-28T11:21:30;10.82;;;8.27;;
33836;SDS011;20140;49.356;8.812;2023-02-28T11:26:54;20.15;;;12.40;;
33836;SDS011;20140;49.356;8.812;2023-02-28T11:29:46;15.75;;;10.63;;
33836;SDS011;20140;49.356;8.812;2023-02-28T11:32:12;9.35;;;7.53;;
33836;SDS011;20140;49.356;8.812;2023-02-28T11:34:43;9.63;;;7.10;;
33836;SDS011;20140;49.356;8.812;2023-02-28T11:37:12;8.30;;;7.43;;
33836;SDS011;20140;49.356;8.812;2023-02-28T11:39:43;9.27;;;6.68;;
33836;SDS011;20140;49.356;8.812;2023-02-28T11:44:53;11.57;;;7.73;;
33836;SDS011;20140;49.356;8.812;2023-02-28T11:53:14;8.02;;;6.80;;
33836;SDS011;20140;49.356;8.812;2023-02-28T11:56:03;8.70;;;6.63;;
33836;SDS011;20140;49.356;8.812;2023-02-28T11:58:38;9.45;;;7.07;;
33836;SDS011;20140;49.356;8.812;2023-02-28T12:15:34;9.05;;;7.00;;
33836;SDS011;20140;49.356;8.812;2023-02-28T12:20:46;9.13;;;7.18;;
33836;SDS011;20140;49.356;8.812;2023-02-28T12:25:54;9.25;;;7.68;;
33836;SDS011;20140;49.356;8.812;2023-02-28T12:28:52;8.02;;;7.00;;
33836;SDS011;20140;49.356;8.812;2023-02-28T12:31:26;8.55;;;7.32;;
33836;SDS011;20140;49.356;8.812;2023-02-28T12:34:01;10.10;;;7.57;;
33836;SDS011;20140;49.356;8.812;2023-02-28T12:36:31;8.77;;;7.10;;
33836;SDS011;20140;49.356;8.812;2023-02-28T12:39:11;8.07;;;7.25;;
33836;SDS011;20140;49.356;8.812;2023-02-28T12:41:49;8.85;;;7.43;;
33836;SDS011;20140;49.356;8.812;2023-02-28T12:44:30;8.40;;;7.10;;
33836;SDS011;20140;49.356;8.812;2023-02-28T12:47:18;9.45;;;7.43;;
33836;SDS011;20140;49.356;8.812;2023-02-28T12:49:58;10.20;;;7.78;;
33836;SDS011;20140;49.356;8.812;2023-02-28T12:52:31;8.10;;;6.83;;
33836;SDS011;20140;49.356;8.812;2023-02-28T12:55:27;7.90;;;6.97;;
33836;SDS011;20140;49.356;8.812;2023-02-28T12:58:01;8.80;;;7.90;;
33836;SDS011;20140;49.356;8.812;2023-02-28T13:00:38;10.27;;;8.20;;
33836;SDS011;20140;49.356;8.812;2023-02-28T13:11:34;11.20;;;8.02;;
33836;SDS011;20140;49.356;8.812;2023-02-28T13:14:05;11.27;;;8.35;;
33836;SDS011;20140;49.356;8.812;2023-02-28T13:17:02;10.15;;;8.45;;
33836;SDS011;20140;49.356;8.812;2023-02-28T13:19:41;8.73;;;7.15;;
33836;SDS011;20140;49.356;8.812;2023-02-28T13:22:18;10.18;;;7.38;;
33836;SDS011;20140;49.356;8.812;2023-02-28T13:24:46;9.13;;;8.23;;
33836;SDS011;20140;49.356;8.812;2023-02-28T13:27:20;9.25;;;8.20;;
33836;SDS011;20140;49.356;8.812;2023-02-28T13:29:49;9.40;;;7.97;;
33836;SDS011;20140;49.356;8.812;2023-02-28T13:32:20;9.67;;;7.80;;
33836;SDS011;20140;49.356;8.812;2023-02-28T13:39:51;9.15;;;7.13;;
33836;SDS011;20140;49.356;8.812;2023-02-28T13:47:40;9.35;;;7.88;;
33836;SDS011;20140;49.356;8.812;2023-02-28T13:50:14;8.70;;;7.40;;
33836;SDS011;20140;49.356;8.812;2023-02-28T13:52:57;8.95;;;7.50;;
33836;SDS011;20140;49.356;8.812;2023-02-28T13:55:31;9.65;;;7.28;;
33836;SDS011;20140;49.356;8.812;2023-02-28T14:07:08;8.57;;;7.68;;
33836;SDS011;20140;49.356;8.812;2023-02-28T14:09:41;11.35;;;9.10;;
33836;SDS011;20140;49.356;8.812;2023-02-28T14:15:28;9.52;;;7.82;;
33836;SDS011;20140;49.356;8.812;2023-02-28T14:17:59;10.02;;;7.40;;
33836;SDS011;20140;49.356;8.812;2023-02-28T14:20:29;8.60;;;7.47;;
33836;SDS011;20140;49.356;8.812;2023-02-28T14:28:51;10.27;;;7.30;;
33836;SDS011;20140;49.356;8.812;2023-02-28T14:31:34;10.32;;;7.03;;
33836;SDS011;20140;49.356;8.812;2023-02-28T14:36:55;11.65;;;7.78;;
33836;SDS011;20140;49.356;8.812;2023-02-28T14:39:25;8.90;;;7.63;;
33836;SDS011;20140;49.356;8.812;2023-02-28T14:41:52;9.05;;;7.43;;
33836;SDS011;20140;49.356;8.812;2023-02-28T14:44:19;8.47;;;7.23;;
33836;SDS011;20140;49.356;8.812;2023-02-28T14:46:50;12.05;;;8.38;;
33836;SDS011;20140;49.356;8.812;2023-02-28T14:49:32;10.30;;;7.53;;
33836;SDS011;20140;49.356;8.812;2023-02-28T14:52:20;8.33;;;7.43;;
33836;SDS011;20140;49.356;8.812;2023-02-28T14:54:54;9.93;;;7.25;;
33836;SDS011;20140;49.356;8.812;2023-02-28T14:57:21;9.70;;;7.83;;
33836;SDS011;20140;49.356;8.812;2023-02-28T14:59:56;8.23;;;7.35;;
33836;SDS011;20140;49.356;8.812;2023-02-28T15:02:30;8.90;;;8.00;;
33836;SDS011;20140;49.356;8.812;2023-02-28T15:04:59;10.95;;;7.47;;
33836;SDS011;20140;49.356;8.812;2023-02-28T15:07:34;9.07;;;6.97;;
33836;SDS011;20140;49.356;8.812;2023-02-28T15:10:11;10.50;;;7.90;;
33836;SDS011;20140;49.356;8.812;2023-02-28T15:12:41;9.48;;;8.32;;
33836;SDS011;20140;49.356;8.812;2023-02-28T15:15:21;9.82;;;7.82;;
33836;SDS011;20140;49.356;8.812;2023-02-28T15:17:51;9.48;;;7.43;;
33836;SDS011;20140;49.356;8.812;2023-02-28T15:20:20;13.13;;;8.05;;
33836;SDS011;20140;49.356;8.812;2023-02-28T15:22:47;9.13;;;8.20;;
33836;SDS011;20140;49.356;8.812;2023-02-28T15:25:17;8.90;;;7.78;;
33836;SDS011;20140;49.356;8.812;2023-02-28T15:27:47;9.82;;;7.60;;
33836;SDS011;20140;49.356;8.812;2023-02-28T15:30:19;10.63;;;9.00;;
33836;SDS011;20140;49.356;8.812;2023-02-28T15:33:34;9.48;;;7.00;;
33836;SDS011;20140;49.356;8.812;2023-02-28T15:35:36;10.00;;;7.57;;
33836;SDS011;20140;49.356;8.812;2023-02-28T15:40:43;10.70;;;7.88;;
33836;SDS011;20140;49.356;8.812;2023-02-28T15:46:29;10.90;;;7.65;;
33836;SDS011;20140;49.356;8.812;2023-02-28T15:51:29;12.48;;;8.05;;
33836;SDS011;20140;49.356;8.812;2023-02-28T15:54:08;11.68;;;8.20;;
33836;SDS011;20140;49.356;8.812;2023-02-28T15:56:49;11.70;;;8.23;;
33836;SDS011;20140;49.356;8.812;2023-02-28T15:59:21;9.23;;;8.20;;
33836;SDS011;20140;49.356;8.812;2023-02-28T16:04:34;10.43;;;7.93;;
33836;SDS011;20140;49.356;8.812;2023-02-28T16:07:01;10.10;;;7.87;;
33836;SDS011;20140;49.356;8.812;2023-02-28T16:09:28;9.18;;;7.18;;
33836;SDS011;20140;49.356;8.812;2023-02-28T16:11:55;9.45;;;8.05;;
33836;SDS011;20140;49.356;8.812;2023-02-28T16:14:26;8.88;;;7.82;;
33836;SDS011;20140;49.356;8.812;2023-02-28T16:16:56;9.65;;;7.75;;
33836;SDS011;20140;49.356;8.812;2023-02-28T16:19:30;10.93;;;7.65;;
33836;SDS011;20140;49.356;8.812;2023-02-28T16:21:56;10.13;;;8.30;;
33836;SDS011;20140;49.356;8.812;2023-02-28T16:24:22;10.13;;;7.72;;
33836;SDS011;20140;49.356;8.812;2023-02-28T16:26:48;11.77;;;7.75;;
33836;SDS011;20140;49.356;8.812;2023-02-28T16:29:35;9.87;;;8.63;;
33836;SDS011;20140;49.356;8.812;2023-02-28T16:32:03;9.87;;;7.03;;
33836;SDS011;20140;49.356;8.812;2023-02-28T16:34:30;13.60;;;9.07;;
33836;SDS011;20140;49.356;8.812;2023-02-28T16:36:55;8.77;;;7.30;;
33836;SDS011;20140;49.356;8.812;2023-02-28T16:39:21;8.70;;;7.72;;
33836;SDS011;20140;49.356;8.812;2023-02-28T16:41:46;11.50;;;8.27;;
33836;SDS011;20140;49.356;8.812;2023-02-28T16:44:17;9.77;;;7.95;;
33836;SDS011;20140;49.356;8.812;2023-02-28T16:46:51;9.88;;;7.70;;
33836;SDS011;20140;49.356;8.812;2023-02-28T16:49:16;10.02;;;7.65;;
33836;SDS011;20140;49.356;8.812;2023-02-28T16:51:42;9.77;;;8.02;;
33836;SDS011;20140;49.356;8.812;2023-02-28T16:54:07;13.93;;;9.00;;
33836;SDS011;20140;49.356;8.812;2023-02-28T16:56:33;11.47;;;8.20;;
33836;SDS011;20140;49.356;8.812;2023-02-28T16:59:00;9.70;;;7.38;;
33836;SDS011;20140;49.356;8.812;2023-02-28T17:01:26;9.60;;;8.10;;
33836;SDS011;20140;49.356;8.812;2023-02-28T17:03:52;8.17;;;7.37;;
33836;SDS011;20140;49.356;8.812;2023-02-28T17:08:55;14.45;;;8.40;;